TR-0039 weather

Kayseri Hava ─░kmal Airfield
Melikgazi, Kayseri Province, Turkey

Public forecast

Using degrees Celsius for public forecast. Weather courtesy of forecast.io.

METAR (pilot weather report)

Closest report is Kayseri Erkilet Airport, 4.1 nm (7.5 km) N. Retrieved 2019/09/21 12:20 UTC (2 minutes ago):

LTAU 211220Z 34009KT 290V020 9999 BKN035 17/05 Q1020 NOSIG RMK RWY07 30009KT 270V350

TAF (pilot weather forecast)

Closest forecast is Kayseri Erkilet Airport, 4.1 nm (7.5 km) N. Retrieved 2019/09/21 12:00 UTC (22 minutes ago):

TAF LTAU 211040Z 2112/2212 34009KT 9999 BKN030 BKN090 TEMPO 2112/2115 -SHRA FEW025CB BKN030 BECMG 2117/2120 CAVOK PROB40 TEMPO 2202/2206 2500 BR SCT008